Time;durP1;ratioP1;P1;durP2;ratioP2;P2;SDS_P1;SDS_P2;PMS_P1;PMS_P2;Temp;Humidity;BMP_temperature;BMP_pressure;BME280_temperature;BME280_humidity;BME280_pressure;Samples;Min_cycle;Max_cycle;Signal;HPM_P1;HPM_P2
2021/03/16 00:00:17;;;;;;;18.57;13.55;;;;;;;20.65;31.87;98402.13;1739408;80;21100;-10
2021/03/16 00:03:03;;;;;;;16.87;12.70;;;;;;;20.58;31.86;98397.81;1751215;80;21112;-10
2021/03/16 00:05:33;;;;;;;17.40;12.68;;;;;;;20.52;32.02;98395.71;1734221;81;21106;-8
2021/03/16 00:08:01;;;;;;;17.23;11.30;;;;;;;20.52;32.02;98392.20;1763441;80;21245;-8
2021/03/16 00:10:28;;;;;;;18.90;13.10;;;;;;;20.49;32.01;98390.64;1734958;80;21276;-8
2021/03/16 00:12:55;;;;;;;17.15;12.45;;;;;;;20.49;31.95;98391.15;1737016;80;21113;-8
2021/03/16 00:15:23;;;;;;;17.77;11.45;;;;;;;20.45;31.83;98384.42;1738120;80;21112;-8
2021/03/16 00:17:50;;;;;;;14.98;11.57;;;;;;;20.39;31.78;98389.83;1738589;80;21133;-8
2021/03/16 00:20:18;;;;;;;19.92;11.73;;;;;;;20.34;31.90;98387.61;1738404;80;21140;-8
2021/03/16 00:22:45;;;;;;;18.07;11.57;;;;;;;20.33;31.95;98393.92;1738992;80;21379;-8
2021/03/16 00:25:15;;;;;;;17.05;11.33;;;;;;;20.32;31.92;98394.89;1754247;80;21104;-8
2021/03/16 00:27:43;;;;;;;15.00;11.22;;;;;;;20.30;31.76;98394.70;1735408;80;21092;-8
2021/03/16 00:30:11;;;;;;;13.95;10.13;;;;;;;20.26;31.78;98398.16;1758161;80;21125;-8
2021/03/16 00:32:39;;;;;;;15.00;11.18;;;;;;;20.25;31.99;98400.97;1737506;79;21063;-8
2021/03/16 00:35:08;;;;;;;17.50;11.12;;;;;;;20.25;31.86;98398.30;1768915;79;21248;-8
2021/03/16 00:37:36;;;;;;;13.70;9.73;;;;;;;20.24;31.86;98402.80;1760575;79;21516;-8
2021/03/16 00:40:05;;;;;;;14.63;10.58;;;;;;;20.25;31.92;98402.30;1766026;79;21125;-8
2021/03/16 00:42:32;;;;;;;15.95;10.10;;;;;;;20.25;31.81;98396.45;1741063;80;21107;-8
2021/03/16 00:45:00;;;;;;;14.43;9.93;;;;;;;20.28;31.90;98398.85;1712687;80;21059;-8
2021/03/16 00:47:27;;;;;;;14.87;10.45;;;;;;;20.32;32.03;98394.89;1760855;79;21373;-8
2021/03/16 00:49:54;;;;;;;13.22;9.28;;;;;;;20.37;31.88;98396.64;1767097;79;21547;-8
2021/03/16 00:52:23;;;;;;;13.50;9.88;;;;;;;20.41;31.90;98402.07;1738097;79;21132;-8
2021/03/16 00:54:50;;;;;;;12.03;9.43;;;;;;;20.46;31.81;98404.32;1734511;79;21100;-8
2021/03/16 00:57:18;;;;;;;14.50;9.60;;;;;;;20.48;31.91;98398.33;1734745;79;21080;-8
2021/03/16 00:59:45;;;;;;;15.75;9.68;;;;;;;20.53;31.69;98397.41;1770043;79;22513;-8
2021/03/16 01:02:15;;;;;;;12.13;9.43;;;;;;;20.56;31.65;98395.79;1743251;80;21107;-9
2021/03/16 01:04:43;;;;;;;14.80;10.15;;;;;;;20.58;31.43;98395.14;1717687;79;21072;-8
2021/03/16 01:07:10;;;;;;;12.43;9.65;;;;;;;20.59;31.49;98393.30;1771534;79;21078;-8
2021/03/16 01:09:38;;;;;;;15.43;9.73;;;;;;;20.60;31.42;98389.16;1762083;79;21061;-10
2021/03/16 01:12:07;;;;;;;12.90;10.03;;;;;;;20.61;31.48;98398.03;1774788;79;21481;-10
2021/03/16 01:14:34;;;;;;;12.80;8.90;;;;;;;20.64;31.48;98397.75;1728252;80;21092;-10
2021/03/16 01:17:01;;;;;;;11.90;9.25;;;;;;;20.67;31.30;98393.46;1746485;79;21091;-10
2021/03/16 01:19:29;;;;;;;12.85;8.95;;;;;;;20.66;31.26;98383.78;1743661;79;21097;-8
2021/03/16 01:21:56;;;;;;;11.30;8.95;;;;;;;20.68;31.31;98385.80;1765769;79;21051;-8
2021/03/16 01:24:24;;;;;;;12.95;9.38;;;;;;;20.68;31.06;98375.58;1775779;79;21385;-8
2021/03/16 01:26:53;;;;;;;12.55;9.13;;;;;;;20.68;31.12;98373.77;1770134;79;21140;-8
2021/03/16 01:29:20;;;;;;;15.25;8.90;;;;;;;20.65;30.81;98376.73;1742451;79;21096;-10
2021/03/16 01:31:47;;;;;;;11.40;8.53;;;;;;;20.61;30.92;98375.32;1739770;80;21099;-10
2021/03/16 01:34:15;;;;;;;10.00;8.55;;;;;;;20.57;31.11;98373.41;1697613;82;21166;-10
2021/03/16 01:36:42;;;;;;;11.83;8.98;;;;;;;20.58;30.96;98375.60;1686675;82;21138;-10
2021/03/16 01:39:10;;;;;;;11.88;9.20;;;;;;;20.55;30.78;98370.55;1716552;82;21139;-10
2021/03/16 01:41:38;;;;;;;10.70;8.75;;;;;;;20.52;30.77;98368.98;1724604;81;21113;-10
2021/03/16 01:44:06;;;;;;;11.33;9.03;;;;;;;20.48;30.95;98372.95;1707750;82;21605;-11
2021/03/16 01:46:33;;;;;;;9.95;8.80;;;;;;;20.49;31.14;98375.13;1714738;82;21166;-10
2021/03/16 01:49:01;;;;;;;11.63;9.05;;;;;;;20.52;31.18;98378.84;1705780;82;21133;-10
2021/03/16 01:51:28;;;;;;;11.65;9.18;;;;;;;20.57;31.17;98377.41;1730386;81;21111;-10
2021/03/16 01:53:56;;;;;;;10.70;8.75;;;;;;;20.59;31.04;98374.12;1737265;81;21548;-10
2021/03/16 01:56:25;;;;;;;12.63;9.38;;;;;;;20.61;30.84;98360.63;1681650;83;21129;-10
2021/03/16 01:59:16;;;;;;;11.12;8.83;;;;;;;20.59;30.49;98362.58;1700874;82;21129;-10
2021/03/16 02:02:05;;;;;;;10.30;8.98;;;;;;;20.51;30.47;98372.67;1689299;83;21168;-11
2021/03/16 02:04:52;;;;;;;9.68;8.33;;;;;;;20.40;30.65;98364.30;1717391;81;21607;-8
2021/03/16 02:07:52;;;;;;;10.88;8.95;;;;;;;20.35;30.69;98370.57;1713784;82;22387;-9
2021/03/16 02:11:03;;;;;;;13.48;8.35;;;;;;;20.30;30.57;98372.00;1719865;81;21099;-9
2021/03/16 02:14:27;;;;;;;11.55;8.63;;;;;;;20.25;30.83;98375.59;1726646;81;21111;-9
2021/03/16 02:17:20;;;;;;;10.72;8.78;;;;;;;20.22;30.63;98370.03;1711138;82;21142;-9
2021/03/16 02:20:39;;;;;;;10.40;8.43;;;;;;;20.14;30.45;98373.91;1717058;82;21118;-9
2021/03/16 02:23:46;;;;;;;10.03;8.48;;;;;;;20.06;30.60;98371.13;1714357;82;21178;-9
2021/03/16 02:27:07;;;;;;;13.50;8.85;;;;;;;19.96;30.65;98375.95;1695450;82;21103;-10
2021/03/16 02:29:55;;;;;;;11.93;8.45;;;;;;;19.88;30.55;98366.97;1705903;81;21592;-9
2021/03/16 02:32:40;;;;;;;11.22;9.43;;;;;;;19.77;30.63;98367.94;1710776;81;21987;-9
2021/03/16 02:35:26;;;;;;;12.10;8.85;;;;;;;19.70;30.65;98360.11;1709924;81;21085;-9
2021/03/16 02:38:11;;;;;;;10.88;8.55;;;;;;;19.61;30.71;98366.63;1700735;82;21525;-9
2021/03/16 02:40:57;;;;;;;10.20;8.25;;;;;;;19.56;30.89;98368.04;1701107;82;21155;-9
2021/03/16 02:43:43;;;;;;;8.83;7.92;;;;;;;19.55;30.82;98375.21;1674542;84;21138;-9
2021/03/16 02:46:28;;;;;;;13.90;8.33;;;;;;;19.53;30.96;98373.15;1707288;82;22145;-9
2021/03/16 02:49:15;;;;;;;11.53;8.00;;;;;;;19.54;30.82;98370.84;1674916;82;21146;-9
2021/03/16 02:52:02;;;;;;;9.95;8.08;;;;;;;19.53;30.82;98370.98;1708724;81;21079;-9
2021/03/16 02:54:47;;;;;;;12.43;9.38;;;;;;;19.45;30.60;98375.19;1734265;81;21100;-9
2021/03/16 02:57:34;;;;;;;10.28;8.70;;;;;;;19.34;30.64;98374.46;1688967;81;21191;-9
2021/03/16 03:00:20;;;;;;;10.30;8.70;;;;;;;19.26;30.81;98374.63;1732104;81;21200;-9
2021/03/16 03:03:06;;;;;;;11.55;8.70;;;;;;;19.27;30.81;98368.83;1685357;83;21140;-9
2021/03/16 03:05:52;;;;;;;12.00;9.45;;;;;;;19.26;30.76;98362.63;1705296;83;21160;-9
2021/03/16 03:08:38;;;;;;;10.95;8.70;;;;;;;19.25;30.74;98361.46;1731525;81;21128;-9
2021/03/16 03:11:24;;;;;;;12.18;7.97;;;;;;;19.24;30.70;98364.59;1726612;81;21120;-9
2021/03/16 03:14:11;;;;;;;9.75;8.03;;;;;;;19.21;30.70;98354.20;1702753;82;23050;-9
2021/03/16 03:16:58;;;;;;;14.73;9.20;;;;;;;19.18;30.71;98362.50;1709441;81;21529;-9
2021/03/16 03:19:44;;;;;;;10.23;8.15;;;;;;;19.15;30.64;98360.09;1686350;82;21130;-9
2021/03/16 03:22:38;;;;;;;11.50;8.90;;;;;;;19.12;30.62;98352.36;1730397;81;21105;-9
2021/03/16 03:25:26;;;;;;;11.45;8.95;;;;;;;19.07;30.59;98362.59;1691824;81;21153;-9
2021/03/16 03:28:25;;;;;;;10.35;8.10;;;;;;;19.05;30.70;98361.89;1708946;81;21328;-9
2021/03/16 03:31:10;;;;;;;10.72;8.58;;;;;;;19.02;30.71;98359.49;1688233;81;21291;-9
2021/03/16 03:33:55;;;;;;;13.25;9.83;;;;;;;19.00;30.71;98367.63;1728194;80;21631;-9
2021/03/16 03:36:42;;;;;;;12.98;9.03;;;;;;;18.98;30.67;98364.25;1743548;80;21520;-9
2021/03/16 03:39:31;;;;;;;9.88;8.73;;;;;;;18.97;30.58;98367.05;1701408;81;21112;-9
2021/03/16 03:42:18;;;;;;;12.35;8.55;;;;;;;18.94;30.60;98370.31;1734699;81;21133;-9
2021/03/16 03:45:06;;;;;;;11.03;8.33;;;;;;;18.93;30.54;98362.48;1697028;81;21104;-9
2021/03/16 03:47:51;;;;;;;11.35;8.23;;;;;;;18.89;30.49;98360.55;1740413;80;21559;-9
2021/03/16 03:50:38;;;;;;;17.15;9.93;;;;;;;18.85;30.48;98364.47;1704075;81;21109;-8
2021/03/16 03:53:25;;;;;;;9.83;8.40;;;;;;;18.84;30.44;98370.77;1704653;81;21137;-9
2021/03/16 03:56:10;;;;;;;10.72;7.78;;;;;;;18.82;30.55;98364.70;1697163;81;21125;-9
2021/03/16 03:58:58;;;;;;;10.53;8.08;;;;;;;18.83;30.59;98364.23;1699521;83;21140;-9
2021/03/16 04:01:43;;;;;;;12.35;8.20;;;;;;;18.83;30.55;98355.78;1706063;83;21145;-9
2021/03/16 04:04:29;;;;;;;10.95;8.60;;;;;;;18.83;30.32;98355.78;1721209;81;21119;-9
2021/03/16 04:07:14;;;;;;;10.08;8.50;;;;;;;18.77;30.33;98352.27;1709148;80;21567;-9
2021/03/16 04:10:01;;;;;;;12.70;9.05;;;;;;;18.71;30.05;98348.80;1723870;81;22482;-9
2021/03/16 04:12:46;;;;;;;11.28;8.65;;;;;;;18.55;30.20;98351.46;1675433;81;21163;-9
2021/03/16 04:15:32;;;;;;;9.35;8.08;;;;;;;18.48;30.25;98349.48;1698038;83;21146;-9
2021/03/16 04:18:18;;;;;;;9.35;8.00;;;;;;;18.42;30.24;98357.48;1726457;80;21505;-9
2021/03/16 04:21:05;;;;;;;9.35;8.33;;;;;;;18.40;30.38;98358.11;1713139;80;21136;-9
2021/03/16 04:23:51;;;;;;;10.18;8.48;;;;;;;18.39;30.31;98357.73;1728473;81;22357;-9
2021/03/16 04:26:36;;;;;;;10.08;7.75;;;;;;;18.34;30.16;98357.30;1720078;81;21128;-8
2021/03/16 04:29:21;;;;;;;;;;;;;;;18.29;30.29;98366.16;1701071;83;21720;-9
2021/03/16 04:32:08;;;;;;;9.68;7.50;;;;;;;18.27;30.33;98362.79;1721601;81;20321;-9
2021/03/16 04:34:53;;;;;;;9.58;8.18;;;;;;;18.27;30.32;98362.30;1700208;82;21120;-9
2021/03/16 04:37:40;;;;;;;11.93;8.35;;;;;;;18.32;30.37;98367.23;1727014;81;21205;-9
2021/03/16 04:40:26;;;;;;;9.53;7.25;;;;;;;18.38;30.42;98366.73;1729889;80;21159;-9
2021/03/16 04:43:11;;;;;;;10.75;7.95;;;;;;;18.42;30.29;98372.13;1713683;80;21191;-9
2021/03/16 04:46:01;;;;;;;11.93;8.90;;;;;;;18.45;30.18;98371.88;1755081;80;21063;-9
2021/03/16 04:48:50;;;;;;;9.93;7.87;;;;;;;18.42;30.15;98369.47;1732283;80;21072;-9
2021/03/16 04:51:40;;;;;;;11.10;7.62;;;;;;;18.42;30.04;98373.46;1735407;80;21204;-9
2021/03/16 04:54:26;;;;;;;9.95;7.28;;;;;;;18.41;30.24;98365.14;1734477;80;21119;-9
2021/03/16 04:57:12;;;;;;;9.13;6.65;;;;;;;18.52;32.98;98366.38;1729010;80;21107;-8
2021/03/16 04:59:57;;;;;;;9.08;6.90;;;;;;;18.73;34.24;98365.52;1719741;80;21104;-9
2021/03/16 05:02:43;;;;;;;9.30;6.35;;;;;;;18.97;34.55;98365.72;1702459;81;21100;-9
2021/03/16 05:05:28;;;;;;;8.88;6.90;;;;;;;19.20;34.68;98368.53;1754580;80;21374;-9
2021/03/16 05:08:15;;;;;;;9.70;6.42;;;;;;;19.41;34.83;98367.59;1726698;81;21133;-9
2021/03/16 05:11:00;;;;;;;7.40;6.45;;;;;;;19.60;35.03;98364.97;1724016;80;21099;-9
2021/03/16 05:13:46;;;;;;;7.20;6.35;;;;;;;19.77;35.08;98367.94;1735054;80;21123;-9
2021/03/16 05:16:31;;;;;;;16.57;6.70;;;;;;;19.93;35.12;98365.55;1763488;80;21172;-9
2021/03/16 05:19:17;;;;;;;11.12;6.03;;;;;;;20.08;35.18;98371.81;1734334;80;21542;-9
2021/03/16 05:22:03;;;;;;;7.08;5.97;;;;;;;20.22;34.96;98370.03;1732998;81;21173;-9
2021/03/16 05:24:49;;;;;;;8.85;6.15;;;;;;;20.35;34.81;98377.25;1708243;81;21115;-8
2021/03/16 05:27:34;;;;;;;7.83;6.08;;;;;;;20.47;34.66;98371.25;1760784;80;21095;-8
2021/03/16 05:30:21;;;;;;;8.98;6.00;;;;;;;20.60;34.49;98370.95;1732313;80;21073;-9
2021/03/16 05:33:06;;;;;;;10.43;6.70;;;;;;;20.71;34.35;98369.48;1749019;80;22419;-8
2021/03/16 05:35:52;;;;;;;10.28;6.00;;;;;;;20.83;34.22;98373.28;1702670;81;21171;-8
2021/03/16 05:38:38;;;;;;;8.70;5.97;;;;;;;20.93;34.20;98371.41;1701850;81;21116;-9
2021/03/16 05:41:23;;;;;;;8.20;5.97;;;;;;;21.05;34.14;98374.77;1725078;81;21133;-9
2021/03/16 05:44:09;;;;;;;8.05;5.50;;;;;;;21.18;33.92;98374.41;1703211;81;21086;-8
2021/03/16 05:46:55;;;;;;;7.35;6.00;;;;;;;21.26;33.79;98374.52;1682104;81;21606;-8
2021/03/16 05:49:41;;;;;;;8.88;6.00;;;;;;;21.37;33.76;98374.31;1725903;81;21164;-8
2021/03/16 05:52:27;;;;;;;10.90;5.78;;;;;;;21.48;33.62;98384.82;1698859;81;21107;-8
2021/03/16 05:55:13;;;;;;;6.70;5.22;;;;;;;21.60;33.46;98390.83;1735352;81;21561;-8
2021/03/16 05:57:59;;;;;;;6.90;5.40;;;;;;;21.70;33.42;98382.70;1706683;81;21098;-8
2021/03/16 06:00:44;;;;;;;9.50;5.70;;;;;;;21.81;33.31;98390.53;1701698;81;22026;-9
2021/03/16 06:03:30;;;;;;;6.67;5.28;;;;;;;21.91;33.14;98390.46;1684895;81;21156;-8
2021/03/16 06:06:15;;;;;;;8.08;5.50;;;;;;;21.99;33.02;98387.86;1704347;81;21210;-9
2021/03/16 06:09:01;;;;;;;5.72;5.15;;;;;;;22.05;32.92;98388.56;1705996;81;21146;-8
2021/03/16 06:11:51;;;;;;;5.70;5.20;;;;;;;22.12;32.83;98393.31;1731058;81;21119;-8
2021/03/16 06:14:37;;;;;;;7.47;5.00;;;;;;;22.18;32.79;98389.52;1720947;81;21346;-8
2021/03/16 06:17:22;;;;;;;5.95;5.08;;;;;;;22.23;32.75;98386.38;1700536;81;21601;-8
2021/03/16 06:20:10;;;;;;;6.62;5.72;;;;;;;22.29;32.72;98383.09;1729630;81;21094;-8
2021/03/16 06:23:12;;;;;;;5.90;5.10;;;;;;;22.33;32.67;98383.66;1723875;81;21133;-8
2021/03/16 06:25:58;;;;;;;5.58;5.08;;;;;;;22.39;32.61;98383.00;1703537;81;21077;-8
2021/03/16 06:28:45;;;;;;;5.95;5.30;;;;;;;22.46;32.59;98382.75;1707708;81;21984;-8
2021/03/16 06:31:32;;;;;;;7.50;5.35;;;;;;;22.51;32.56;98398.33;1724738;81;21180;-8
2021/03/16 06:34:25;;;;;;;6.60;5.35;;;;;;;22.56;32.67;98410.30;1710935;80;21088;-9
2021/03/16 06:37:18;;;;;;;6.53;5.12;;;;;;;22.61;32.55;98425.41;1753774;80;21060;-8
2021/03/16 06:40:05;;;;;;;5.80;5.25;;;;;;;22.68;32.42;98416.71;1747621;80;21756;-8
2021/03/16 06:43:05;;;;;;;5.20;4.70;;;;;;;22.75;32.25;98411.92;1759882;80;22342;-8
2021/03/16 06:45:52;;;;;;;7.25;5.20;;;;;;;22.81;32.09;98412.63;1751858;80;21111;-8
2021/03/16 06:48:38;;;;;;;5.22;4.72;;;;;;;22.88;31.96;98403.45;1732339;80;21079;-8
2021/03/16 06:51:28;;;;;;;5.60;4.83;;;;;;;22.94;31.79;98392.58;1743938;80;21148;-8
2021/03/16 06:54:19;;;;;;;5.35;4.80;;;;;;;22.99;31.69;98412.55;1734473;80;21490;-8
2021/03/16 06:57:08;;;;;;;19.60;13.03;;;;;;;23.05;31.57;98411.56;1757320;80;21201;-8
2021/03/16 06:59:54;;;;;;;10.10;8.38;;;;;;;23.08;29.64;98400.08;1732259;80;21214;-9
2021/03/16 07:02:40;;;;;;;10.45;7.72;;;;;;;22.95;28.63;98413.88;1753583;80;21124;-9
2021/03/16 07:05:27;;;;;;;12.88;7.33;;;;;;;22.74;28.38;98405.37;1714887;80;21132;-9
2021/03/16 07:08:15;;;;;;;8.85;6.92;;;;;;;22.66;29.56;98412.84;1712374;80;21517;-9
2021/03/16 07:11:05;;;;;;;8.15;6.22;;;;;;;22.68;30.07;98408.19;1712949;80;21108;-9
2021/03/16 07:13:55;;;;;;;10.98;7.20;;;;;;;22.74;30.40;98413.41;1752927;80;21098;-9
2021/03/16 07:16:42;;;;;;;9.50;6.65;;;;;;;22.80;30.67;98409.59;1754977;80;21130;-9
2021/03/16 07:19:31;;;;;;;11.10;5.90;;;;;;;22.87;30.85;98409.81;1757433;80;21056;-9
2021/03/16 07:22:20;;;;;;;12.30;6.50;;;;;;;22.95;31.01;98415.73;1717095;80;21073;-9
2021/03/16 07:25:08;;;;;;;11.43;6.67;;;;;;;23.01;31.13;98416.41;1750522;80;22353;-9
2021/03/16 07:27:53;;;;;;;9.23;5.90;;;;;;;23.08;31.23;98399.21;1719824;80;21566;-9
2021/03/16 07:30:41;;;;;;;9.28;6.20;;;;;;;23.14;31.28;98391.88;1761866;80;21136;-9
2021/03/16 07:33:28;;;;;;;10.28;6.80;;;;;;;23.21;31.33;98392.90;1758182;80;21095;-9
2021/03/16 07:36:14;;;;;;;7.92;6.17;;;;;;;23.27;31.42;98385.55;1742851;80;21092;-9
2021/03/16 07:39:00;;;;;;;8.48;6.08;;;;;;;23.34;31.43;98385.75;1717850;81;21485;-9
2021/03/16 07:41:47;;;;;;;11.15;5.58;;;;;;;23.41;31.49;98385.94;1743735;80;21108;-9
2021/03/16 07:44:42;;;;;;;12.47;6.17;;;;;;;23.45;31.50;98382.77;1744084;80;21130;-9
2021/03/16 07:47:37;;;;;;;12.28;6.28;;;;;;;23.50;31.52;98383.13;1746493;80;21502;-9
2021/03/16 07:50:30;;;;;;;7.40;5.80;;;;;;;23.57;31.56;98384.65;1748428;80;21092;-10
2021/03/16 07:53:26;;;;;;;11.30;6.58;;;;;;;23.63;31.45;98378.60;1740673;80;21342;-10
2021/03/16 07:56:13;;;;;;;10.43;6.37;;;;;;;23.68;31.58;98377.61;1749064;80;21552;-8
2021/03/16 07:58:59;;;;;;;11.70;6.30;;;;;;;23.73;31.69;98392.72;1727628;81;21136;-10
2021/03/16 08:01:47;;;;;;;11.20;6.17;;;;;;;23.80;31.71;98388.04;1728978;80;21093;-10
2021/03/16 08:04:39;;;;;;;9.40;6.08;;;;;;;23.83;31.79;98379.18;1672883;84;21160;-10
2021/03/16 08:07:28;;;;;;;10.82;6.35;;;;;;;23.87;31.81;98372.48;1723565;81;22336;-10
2021/03/16 08:10:27;;;;;;;9.95;6.33;;;;;;;23.93;31.90;98376.34;1677309;83;21144;-9
2021/03/16 08:13:19;;;;;;;11.40;6.60;;;;;;;23.97;32.07;98388.42;1701383;83;21112;-10
2021/03/16 08:16:15;;;;;;;13.20;6.92;;;;;;;24.02;32.20;98370.47;1734680;80;21076;-10
2021/03/16 08:19:18;;;;;;;11.83;7.17;;;;;;;24.06;31.17;98371.83;1727979;81;21112;-10
2021/03/16 08:22:03;;;;;;;15.13;7.00;;;;;;;23.96;28.94;98371.98;1729627;81;21389;-10
2021/03/16 08:25:05;;;;;;;12.15;7.15;;;;;;;23.77;29.21;98381.66;1704265;83;21132;-10
2021/03/16 08:27:51;;;;;;;12.10;7.28;;;;;;;23.56;29.03;98381.61;1720589;82;21535;-10
2021/03/16 08:30:38;;;;;;;15.60;7.28;;;;;;;23.37;29.49;98383.58;1700680;82;21112;-10
2021/03/16 08:33:25;;;;;;;14.23;7.58;;;;;;;23.23;29.10;98378.81;1698100;81;21152;-9
2021/03/16 08:36:12;;;;;;;13.35;6.75;;;;;;;23.07;29.30;98381.45;1680949;83;21380;-9
2021/03/16 08:38:58;;;;;;;10.15;6.58;;;;;;;22.90;29.30;98379.98;1683820;82;21152;-9
2021/03/16 08:41:55;;;;;;;15.43;7.42;;;;;;;22.76;28.51;98388.13;1700681;82;21170;-8
2021/03/16 08:44:41;;;;;;;10.18;6.60;;;;;;;22.65;28.33;98387.56;1727286;81;21105;-9
2021/03/16 08:47:27;;;;;;;11.57;6.92;;;;;;;22.60;27.98;98381.33;1713241;82;21118;-9
2021/03/16 08:50:14;;;;;;;15.48;7.08;;;;;;;22.48;28.55;98384.77;1741977;80;21491;-9
2021/03/16 08:52:59;;;;;;;15.00;8.35;;;;;;;22.38;28.99;98380.84;1711489;80;21143;-9
2021/03/16 08:55:49;;;;;;;16.65;7.70;;;;;;;22.36;29.56;98383.31;1713057;82;21548;-9
2021/03/16 08:58:36;;;;;;;115.32;37.33;;;;;;;22.34;29.39;98385.31;1678172;83;22121;-9
2021/03/16 09:01:27;;;;;;;22.02;10.48;;;;;;;22.31;28.89;98388.30;1703030;82;21595;-9
2021/03/16 09:04:15;;;;;;;16.50;8.43;;;;;;;22.16;28.36;98376.78;1718055;81;21461;-8
2021/03/16 09:07:01;;;;;;;18.67;7.75;;;;;;;21.85;28.51;98379.02;1675266;83;21133;-8
2021/03/16 09:09:46;;;;;;;14.05;7.40;;;;;;;21.56;29.31;98383.25;1725068;81;21086;-8
2021/03/16 09:12:32;;;;;;;12.90;7.22;;;;;;;21.51;29.97;98383.69;1719322;81;21180;-8
2021/03/16 09:15:22;;;;;;;14.68;7.53;;;;;;;21.59;29.50;98389.13;1722189;81;21704;-8
2021/03/16 09:18:08;;;;;;;10.38;6.37;;;;;;;21.49;29.65;98383.00;1730713;81;21390;-8
2021/03/16 09:20:55;;;;;;;11.55;6.40;;;;;;;21.30;30.07;98375.88;1681980;83;21133;-9
2021/03/16 09:23:41;;;;;;;14.83;7.05;;;;;;;21.34;30.64;98371.94;1676973;83;21547;-8
2021/03/16 09:26:27;;;;;;;11.57;6.15;;;;;;;21.49;30.93;98369.13;1728999;81;21161;-8
2021/03/16 09:29:12;;;;;;;12.58;5.80;;;;;;;21.67;31.00;98365.61;1738229;80;21143;-9
2021/03/16 09:32:00;;;;;;;13.65;5.80;;;;;;;21.85;31.01;98371.81;1729541;80;21347;-8
2021/03/16 09:34:47;;;;;;;11.22;5.70;;;;;;;22.03;31.01;98380.35;1701948;80;21595;-9
2021/03/16 09:37:46;;;;;;;9.50;6.00;;;;;;;22.17;30.96;98383.81;1715261;82;21145;-8
2021/03/16 09:40:16;;;;;;;8.88;5.50;;;;;;;22.31;30.97;98385.63;1712984;80;21107;-8
2021/03/16 09:42:50;;;;;;;9.18;5.03;;;;;;;22.45;31.00;98387.75;1693495;82;21094;-8
2021/03/16 09:45:24;;;;;;;9.38;5.20;;;;;;;22.56;31.01;98386.64;1701536;81;21315;-9
2021/03/16 09:47:52;;;;;;;11.22;5.40;;;;;;;22.66;31.01;98390.05;1706765;81;21611;-9
2021/03/16 09:50:36;;;;;;;8.08;5.28;;;;;;;22.76;30.98;98388.61;1725754;81;21625;-9
2021/03/16 09:53:07;;;;;;;7.75;5.33;;;;;;;22.85;30.99;98394.38;1682224;83;21133;-9
2021/03/16 09:55:35;;;;;;;8.00;4.70;;;;;;;22.95;31.02;98390.25;1703837;83;21085;-9
2021/03/16 09:58:02;;;;;;;10.72;4.75;;;;;;;23.09;30.99;98407.10;1699134;83;21220;-9
2021/03/16 10:00:30;;;;;;;9.18;4.72;;;;;;;23.22;30.96;98402.64;1724261;81;21156;-9
2021/03/16 10:03:06;;;;;;;10.43;5.40;;;;;;;23.34;30.83;98408.05;1728636;81;21085;-9
2021/03/16 10:05:36;;;;;;;9.98;5.50;;;;;;;23.47;30.80;98414.80;1728047;81;21187;-9
2021/03/16 10:08:04;;;;;;;8.70;4.90;;;;;;;23.58;30.72;98406.45;1727613;81;21133;-9
2021/03/16 10:10:33;;;;;;;9.08;4.78;;;;;;;23.67;30.69;98405.48;1722263;81;21451;-9
2021/03/16 10:13:03;;;;;;;9.45;4.70;;;;;;;23.81;30.70;98407.20;1704266;81;21117;-9
2021/03/16 10:15:37;;;;;;;9.35;4.70;;;;;;;23.90;30.66;98412.94;1686254;82;21142;-9
2021/03/16 10:18:08;;;;;;;8.75;4.85;;;;;;;23.98;30.64;98401.37;1720581;81;21149;-9
2021/03/16 10:20:39;;;;;;;7.65;4.30;;;;;;;24.06;30.60;98413.48;1693968;83;21161;-9
2021/03/16 10:23:18;;;;;;;6.53;4.50;;;;;;;24.13;30.59;98408.28;1696198;83;21235;-9
2021/03/16 10:25:55;;;;;;;6.47;4.62;;;;;;;24.18;30.60;98398.69;1699199;81;21169;-9
2021/03/16 10:28:41;;;;;;;10.63;4.67;;;;;;;24.25;30.58;98402.89;1691058;81;21191;-9
2021/03/16 10:31:25;;;;;;;6.80;4.58;;;;;;;24.31;30.52;98400.89;1709681;82;21164;-9
2021/03/16 10:33:55;;;;;;;7.42;4.72;;;;;;;24.35;30.57;98398.19;1714818;81;21131;-9
2021/03/16 10:36:23;;;;;;;6.62;4.30;;;;;;;24.40;30.66;98401.20;1686550;83;21299;-9
2021/03/16 10:38:51;;;;;;;5.65;4.28;;;;;;;24.44;30.65;98397.19;1640147;84;21586;-9
2021/03/16 10:41:19;;;;;;;4.97;4.33;;;;;;;24.51;30.56;98397.83;1694271;82;21569;-9
2021/03/16 10:43:47;;;;;;;6.85;4.55;;;;;;;24.56;30.49;98391.47;1674696;82;21134;-9
2021/03/16 10:46:14;;;;;;;6.72;4.47;;;;;;;24.61;30.46;98398.52;1726283;81;21144;-9
2021/03/16 10:48:42;;;;;;;13.55;7.60;;;;;;;24.64;30.43;98390.12;1729811;81;21374;-9
2021/03/16 10:51:09;;;;;;;13.20;7.12;;;;;;;24.66;28.55;98390.78;1728149;81;21102;-9
2021/03/16 10:53:37;;;;;;;13.43;7.10;;;;;;;24.55;27.09;98390.64;1701231;81;21108;-10
2021/03/16 10:56:06;;;;;;;19.65;8.80;;;;;;;24.33;26.64;98386.77;1727139;81;21187;-10
2021/03/16 10:58:34;;;;;;;14.60;8.53;;;;;;;24.15;26.40;98387.45;1703025;81;21161;-10
2021/03/16 11:01:03;;;;;;;14.87;8.60;;;;;;;23.97;26.37;98384.39;1701622;81;22438;-10
2021/03/16 11:03:33;;;;;;;14.07;8.18;;;;;;;23.75;26.36;98384.50;1701020;82;21179;-10
2021/03/16 11:06:04;;;;;;;18.62;9.30;;;;;;;23.44;26.57;98377.56;1730992;81;21142;-10
2021/03/16 11:08:33;;;;;;;29.90;9.63;;;;;;;23.18;26.64;98375.78;1698755;83;21172;-10
2021/03/16 11:11:01;;;;;;;18.77;9.75;;;;;;;22.93;26.92;98372.97;1686489;81;21123;-10
2021/03/16 11:13:29;;;;;;;23.18;10.18;;;;;;;22.81;26.69;98372.89;1700991;81;21370;-10
2021/03/16 11:15:58;;;;;;;19.12;9.25;;;;;;;22.68;26.53;98369.31;1702144;83;21121;-10
2021/03/16 11:18:26;;;;;;;16.32;9.23;;;;;;;22.53;26.56;98370.90;1705797;81;21609;-10
2021/03/16 11:20:53;;;;;;;17.32;8.80;;;;;;;22.36;26.47;98364.55;1724695;81;21120;-10
2021/03/16 11:23:21;;;;;;;20.02;9.00;;;;;;;22.17;26.57;98366.39;1728543;81;21101;-10
2021/03/16 11:25:48;;;;;;;15.65;8.93;;;;;;;22.03;26.64;98365.62;1705703;81;21143;-10
2021/03/16 11:28:15;;;;;;;22.93;9.50;;;;;;;21.92;26.75;98363.17;1726304;81;21143;-10
2021/03/16 11:30:43;;;;;;;25.25;12.43;;;;;;;21.80;27.15;98364.73;1737815;81;21144;-10
2021/03/16 11:33:11;;;;;;;21.68;11.63;;;;;;;21.75;27.43;98371.05;1708254;81;22057;-10
2021/03/16 11:35:57;;;;;;;23.07;9.38;;;;;;;21.71;27.47;98360.31;1715413;80;21587;-10
2021/03/16 11:38:43;;;;;;;13.35;7.95;;;;;;;21.73;27.71;98355.64;1720814;80;21402;-10
2021/03/16 11:41:29;;;;;;;14.40;6.83;;;;;;;21.79;28.09;98354.20;1734648;80;21527;-10
2021/03/16 11:44:14;;;;;;;12.75;6.33;;;;;;;21.91;28.27;98356.16;1737102;80;21567;-10
2021/03/16 11:47:00;;;;;;;10.75;6.33;;;;;;;22.06;28.27;98354.61;1762739;80;21094;-10
2021/03/16 11:49:46;;;;;;;15.23;6.25;;;;;;;22.23;28.33;98357.74;1756753;80;21544;-10
2021/03/16 11:52:31;;;;;;;12.13;5.95;;;;;;;22.43;28.34;98353.58;1709225;80;21929;-10
2021/03/16 11:55:16;;;;;;;10.08;5.78;;;;;;;22.59;28.36;98352.34;1718097;80;21150;-10
2021/03/16 11:58:02;;;;;;;10.38;5.42;;;;;;;22.77;28.35;98335.34;1732537;80;21583;-10
2021/03/16 12:00:48;;;;;;;10.95;5.15;;;;;;;22.92;28.35;98333.73;1749909;80;21570;-10
2021/03/16 12:03:35;;;;;;;11.85;5.00;;;;;;;23.08;28.31;98326.77;1761957;80;21187;-10
2021/03/16 12:06:21;;;;;;;8.78;4.78;;;;;;;23.23;28.32;98331.02;1769949;80;22055;-10
2021/03/16 12:09:07;;;;;;;10.38;4.58;;;;;;;23.35;28.31;98333.73;1736151;80;21168;-10
2021/03/16 12:11:54;;;;;;;7.90;4.55;;;;;;;23.48;28.32;98330.58;1756076;80;21237;-10
2021/03/16 12:14:40;;;;;;;10.18;4.90;;;;;;;23.60;28.34;98325.73;1722922;80;21130;-10
2021/03/16 12:17:26;;;;;;;9.48;4.37;;;;;;;23.69;28.36;98336.33;1714189;81;21133;-10
2021/03/16 12:20:13;;;;;;;5.40;4.17;;;;;;;23.83;28.43;98330.00;1707259;81;21394;-10
2021/03/16 12:22:59;;;;;;;5.45;4.30;;;;;;;23.90;28.48;98329.14;1690660;81;21168;-10
2021/03/16 12:25:50;;;;;;;6.83;4.42;;;;;;;24.00;28.51;98330.33;1715215;81;21899;-10
2021/03/16 12:28:32;;;;;;;9.83;4.53;;;;;;;24.09;28.53;98336.05;1695482;81;21948;-10
2021/03/16 12:31:18;;;;;;;6.97;4.58;;;;;;;24.17;28.57;98334.36;1704323;81;21550;-10
2021/03/16 12:34:04;;;;;;;6.15;4.17;;;;;;;24.25;28.61;98342.42;1725249;81;22327;-10
2021/03/16 12:36:51;;;;;;;13.38;4.60;;;;;;;24.32;28.63;98344.76;1705765;81;21571;-10
2021/03/16 12:39:37;;;;;;;7.00;4.40;;;;;;;24.41;28.65;98346.92;1719612;81;21534;-10
2021/03/16 12:42:23;;;;;;;7.42;4.12;;;;;;;24.46;28.71;98344.08;1684031;81;21145;-10